SWR948D LSZH-EDDB
Flight info
| Callsign | SWR948D |
|---|---|
| Flight time | 1h 3m |
| Altitude | 39000 |
| Route | DEGES Z1 ETAGO DCT TIKNI T279 TAMEB T278 KLF KLF1L |
| Aircraft | A320/M-SDE2E3FGHIJ1RWXY/LB1 |
Departure
| Time | 2026-02-22 05:45 |
|---|---|
| Airport | Zürich Airport (LSZH) |
Arrival
| Time | 2026-02-22 06:48 |
|---|---|
| Airport | Berlin Brandenburg Airport (EDDB) |
| Time | Latitude | Longitude | Altitude | Speed | Heading |
|---|---|---|---|---|---|
| 2026-02-22 04:58 | 47.45158 | 8.55991 | 1407 ft | 0 kts | 186° |
| 2026-02-22 05:31 | 47.45160 | 8.55991 | 1407 ft | 1 kts | 186° |
| 2026-02-22 05:31 | 47.45178 | 8.55994 | 1414 ft | 3 kts | 185° |
| 2026-02-22 05:32 | 47.45198 | 8.55995 | 1407 ft | 3 kts | 172° |
| 2026-02-22 05:32 | 47.45215 | 8.55988 | 1415 ft | 3 kts | 133° |
| 2026-02-22 05:32 | 47.45223 | 8.55970 | 1408 ft | 3 kts | 112° |
| 2026-02-22 05:32 | 47.45229 | 8.55942 | 1409 ft | 3 kts | 101° |
| 2026-02-22 05:33 | 47.45232 | 8.55913 | 1416 ft | 3 kts | 94° |
| 2026-02-22 05:33 | 47.45234 | 8.55885 | 1414 ft | 3 kts | 121° |
| 2026-02-22 05:33 | 47.45236 | 8.55876 | 1413 ft | 1 kts | 186° |
| 2026-02-22 05:33 | 47.45246 | 8.55877 | 1414 ft | 3 kts | 218° |
| 2026-02-22 05:34 | 47.45252 | 8.55894 | 1416 ft | 3 kts | 271° |
| 2026-02-22 05:34 | 47.45250 | 8.55923 | 1416 ft | 2 kts | 276° |
| 2026-02-22 05:34 | 47.45249 | 8.55937 | 1414 ft | 3 kts | 269° |
| 2026-02-22 05:34 | 47.45249 | 8.55952 | 1415 ft | 0 kts | 276° |
| 2026-02-22 05:37 | 47.45255 | 8.55874 | 1412 ft | 13 kts | 276° |
| 2026-02-22 05:37 | 47.45265 | 8.55733 | 1407 ft | 15 kts | 276° |
| 2026-02-22 05:37 | 47.45289 | 8.55573 | 1413 ft | 15 kts | 315° |
| 2026-02-22 05:38 | 47.45376 | 8.55512 | 1412 ft | 14 kts | 334° |
| 2026-02-22 05:38 | 47.45481 | 8.55438 | 1405 ft | 19 kts | 335° |
| 2026-02-22 05:38 | 47.45603 | 8.55352 | 1402 ft | 18 kts | 334° |
| 2026-02-22 05:38 | 47.45671 | 8.55389 | 1406 ft | 11 kts | 90° |
| 2026-02-22 05:39 | 47.45662 | 8.55526 | 1403 ft | 20 kts | 96° |
| 2026-02-22 05:39 | 47.45647 | 8.55734 | 1413 ft | 20 kts | 96° |
| 2026-02-22 05:39 | 47.45632 | 8.55942 | 1412 ft | 20 kts | 96° |
| 2026-02-22 05:39 | 47.45616 | 8.56152 | 1414 ft | 19 kts | 96° |
| 2026-02-22 05:40 | 47.45639 | 8.56263 | 1415 ft | 10 kts | 16° |
| 2026-02-22 05:40 | 47.45757 | 8.56285 | 1415 ft | 22 kts | 6° |
| 2026-02-22 05:40 | 47.45887 | 8.56303 | 1414 ft | 17 kts | 5° |
| 2026-02-22 05:40 | 47.45969 | 8.56316 | 1412 ft | 6 kts | 7° |
| 2026-02-22 05:41 | 47.46010 | 8.56324 | 1411 ft | 0 kts | 7° |
| 2026-02-22 05:43 | 47.46014 | 8.56324 | 1411 ft | 4 kts | 7° |
| 2026-02-22 05:43 | 47.46082 | 8.56350 | 1414 ft | 11 kts | 34° |
| 2026-02-22 05:43 | 47.46127 | 8.56425 | 1411 ft | 6 kts | 47° |
| 2026-02-22 05:44 | 47.46144 | 8.56432 | 1415 ft | 2 kts | 323° |
| 2026-02-22 05:44 | 47.46158 | 8.56412 | 1410 ft | 6 kts | 316° |
| 2026-02-22 05:44 | 47.46342 | 8.56158 | 1406 ft | 77 kts | 317° |
| 2026-02-22 05:44 | 47.46916 | 8.55372 | 1399 ft | 145 kts | 317° |
| 2026-02-22 05:45 | 47.47732 | 8.54264 | 1809 ft | 160 kts | 315° |
| 2026-02-22 05:45 | 47.48550 | 8.53145 | 2642 ft | 160 kts | 313° |
| 2026-02-22 05:45 | 47.49500 | 8.52251 | 3402 ft | 167 kts | 327° |
| 2026-02-22 05:45 | 47.50538 | 8.51486 | 4131 ft | 166 kts | 325° |
| 2026-02-22 05:46 | 47.51565 | 8.50696 | 4801 ft | 172 kts | 324° |
| 2026-02-22 05:46 | 47.52739 | 8.49919 | 5137 ft | 201 kts | 339° |
| 2026-02-22 05:46 | 47.54232 | 8.49799 | 5511 ft | 230 kts | 3° |
| 2026-02-22 05:46 | 47.55755 | 8.50608 | 6216 ft | 243 kts | 27° |
| 2026-02-22 05:47 | 47.57017 | 8.52287 | 7112 ft | 248 kts | 50° |
| 2026-02-22 05:47 | 47.57761 | 8.54623 | 7896 ft | 256 kts | 76° |
| 2026-02-22 05:47 | 47.57816 | 8.57284 | 8669 ft | 261 kts | 94° |
| 2026-02-22 05:47 | 47.57705 | 8.59973 | 9494 ft | 263 kts | 92° |
| 2026-02-22 05:48 | 47.57605 | 8.62688 | 10316 ft | 265 kts | 92° |
| 2026-02-22 05:48 | 47.57502 | 8.65448 | 10989 ft | 272 kts | 91° |
| 2026-02-22 05:48 | 47.57409 | 8.68274 | 11673 ft | 277 kts | 90° |
| 2026-02-22 05:48 | 47.57627 | 8.71165 | 12076 ft | 293 kts | 65° |
| 2026-02-22 05:49 | 47.58742 | 8.73731 | 12420 ft | 304 kts | 39° |
| 2026-02-22 05:49 | 47.60390 | 8.75864 | 12713 ft | 326 kts | 35° |
| 2026-02-22 05:49 | 47.62190 | 8.78061 | 13205 ft | 341 kts | 34° |
| 2026-02-22 05:49 | 47.64047 | 8.80301 | 13971 ft | 347 kts | 34° |
| 2026-02-22 05:50 | 47.65924 | 8.82578 | 14731 ft | 350 kts | 34° |
| 2026-02-22 05:50 | 47.67807 | 8.84886 | 15511 ft | 353 kts | 34° |
| 2026-02-22 05:50 | 47.69703 | 8.87228 | 16278 ft | 356 kts | 34° |
| 2026-02-22 05:50 | 47.71612 | 8.89596 | 17027 ft | 359 kts | 34° |
| 2026-02-22 05:51 | 47.73533 | 8.91989 | 17769 ft | 362 kts | 34° |
| 2026-02-22 05:51 | 47.75469 | 8.94405 | 18513 ft | 365 kts | 34° |
| 2026-02-22 05:51 | 47.77423 | 8.96836 | 19161 ft | 367 kts | 33° |
| 2026-02-22 05:51 | 47.79570 | 8.98827 | 19785 ft | 363 kts | 21° |
| 2026-02-22 05:52 | 47.81838 | 9.00515 | 20439 ft | 366 kts | 21° |
| 2026-02-22 05:52 | 47.84119 | 9.02220 | 21081 ft | 368 kts | 21° |
| 2026-02-22 05:52 | 47.86416 | 9.03943 | 21725 ft | 371 kts | 21° |
| 2026-02-22 05:52 | 47.88731 | 9.05685 | 22354 ft | 374 kts | 21° |
| 2026-02-22 05:53 | 47.91064 | 9.07445 | 22991 ft | 377 kts | 21° |
| 2026-02-22 05:53 | 47.93416 | 9.09217 | 23619 ft | 380 kts | 21° |
| 2026-02-22 05:53 | 47.95781 | 9.10999 | 24175 ft | 383 kts | 21° |
| 2026-02-22 05:53 | 47.98169 | 9.12796 | 24685 ft | 386 kts | 21° |
| 2026-02-22 05:54 | 48.00573 | 9.14609 | 25200 ft | 388 kts | 21° |
| 2026-02-22 05:54 | 48.02992 | 9.16434 | 25665 ft | 391 kts | 21° |
| 2026-02-22 05:54 | 48.05427 | 9.18272 | 26157 ft | 393 kts | 21° |
| 2026-02-22 05:54 | 48.07875 | 9.20128 | 26632 ft | 396 kts | 21° |
| 2026-02-22 05:55 | 48.10309 | 9.21978 | 27057 ft | 399 kts | 21° |
| 2026-02-22 05:55 | 48.12794 | 9.23866 | 27490 ft | 402 kts | 21° |
| 2026-02-22 05:55 | 48.15294 | 9.25770 | 27926 ft | 404 kts | 21° |
| 2026-02-22 05:55 | 48.17810 | 9.27688 | 28351 ft | 407 kts | 21° |
| 2026-02-22 05:56 | 48.20341 | 9.29617 | 28757 ft | 409 kts | 21° |
| 2026-02-22 05:56 | 48.22884 | 9.31561 | 29174 ft | 412 kts | 21° |
| 2026-02-22 05:56 | 48.25445 | 9.33521 | 29573 ft | 414 kts | 21° |
| 2026-02-22 05:56 | 48.28022 | 9.35493 | 29983 ft | 417 kts | 20° |
| 2026-02-22 05:57 | 48.30613 | 9.37476 | 30364 ft | 419 kts | 20° |
| 2026-02-22 05:57 | 48.33219 | 9.39468 | 30687 ft | 421 kts | 20° |
| 2026-02-22 05:57 | 48.35834 | 9.41469 | 31025 ft | 422 kts | 20° |
| 2026-02-22 05:57 | 48.38457 | 9.43481 | 31360 ft | 424 kts | 20° |
| 2026-02-22 05:58 | 48.41083 | 9.45500 | 31699 ft | 425 kts | 20° |
| 2026-02-22 05:58 | 48.43716 | 9.47534 | 32024 ft | 426 kts | 20° |
| 2026-02-22 05:58 | 48.46345 | 9.49567 | 32466 ft | 423 kts | 20° |
| 2026-02-22 05:58 | 48.48958 | 9.51590 | 32930 ft | 421 kts | 20° |
| 2026-02-22 05:59 | 48.51556 | 9.53601 | 33393 ft | 419 kts | 20° |
| 2026-02-22 05:59 | 48.54104 | 9.55576 | 33862 ft | 416 kts | 20° |
| 2026-02-22 05:59 | 48.56665 | 9.57560 | 34408 ft | 411 kts | 20° |
| 2026-02-22 05:59 | 48.59200 | 9.59526 | 34875 ft | 408 kts | 20° |
| 2026-02-22 06:00 | 48.61720 | 9.61478 | 35249 ft | 406 kts | 19° |
| 2026-02-22 06:00 | 48.64224 | 9.63417 | 35625 ft | 404 kts | 19° |
| 2026-02-22 06:00 | 48.66724 | 9.65355 | 35980 ft | 403 kts | 19° |
| 2026-02-22 06:00 | 48.69213 | 9.67289 | 36300 ft | 402 kts | 19° |
| 2026-02-22 06:01 | 48.71698 | 9.69224 | 36596 ft | 401 kts | 19° |
| 2026-02-22 06:01 | 48.74180 | 9.71158 | 36895 ft | 401 kts | 19° |
| 2026-02-22 06:01 | 48.76655 | 9.73091 | 37200 ft | 400 kts | 19° |
| 2026-02-22 06:01 | 48.79122 | 9.75023 | 37511 ft | 398 kts | 18° |
| 2026-02-22 06:02 | 48.81581 | 9.76955 | 37783 ft | 398 kts | 19° |
| 2026-02-22 06:02 | 48.84033 | 9.78883 | 38079 ft | 396 kts | 18° |
| 2026-02-22 06:02 | 48.86480 | 9.80807 | 38363 ft | 395 kts | 18° |
| 2026-02-22 06:02 | 48.88921 | 9.82725 | 38666 ft | 395 kts | 18° |
| 2026-02-22 06:03 | 48.91361 | 9.84641 | 38879 ft | 395 kts | 18° |
| 2026-02-22 06:03 | 48.93797 | 9.86553 | 39065 ft | 395 kts | 18° |
| 2026-02-22 06:03 | 48.96243 | 9.88474 | 39210 ft | 396 kts | 18° |
| 2026-02-22 06:03 | 48.98659 | 9.90378 | 39242 ft | 397 kts | 18° |
| 2026-02-22 06:04 | 49.03595 | 9.94281 | 39249 ft | 397 kts | 18° |
| 2026-02-22 06:04 | 49.08462 | 9.98134 | 39247 ft | 397 kts | 18° |
| 2026-02-22 06:05 | 49.13381 | 10.02037 | 39245 ft | 399 kts | 18° |
| 2026-02-22 06:05 | 49.18321 | 10.05974 | 39237 ft | 403 kts | 18° |
| 2026-02-22 06:06 | 49.23354 | 10.09977 | 39223 ft | 412 kts | 18° |
| 2026-02-22 06:06 | 49.28474 | 10.14058 | 39221 ft | 417 kts | 19° |
| 2026-02-22 06:07 | 49.33631 | 10.18200 | 39218 ft | 419 kts | 19° |
| 2026-02-22 06:07 | 49.38799 | 10.22367 | 39223 ft | 420 kts | 19° |
| 2026-02-22 06:08 | 49.43962 | 10.26540 | 39226 ft | 420 kts | 19° |
| 2026-02-22 06:08 | 49.49103 | 10.30689 | 39230 ft | 420 kts | 19° |
| 2026-02-22 06:09 | 49.54286 | 10.34866 | 39244 ft | 421 kts | 18° |
| 2026-02-22 06:09 | 49.59476 | 10.39057 | 39255 ft | 421 kts | 19° |
| 2026-02-22 06:10 | 49.64654 | 10.43270 | 39247 ft | 421 kts | 19° |
| 2026-02-22 06:10 | 49.69823 | 10.47495 | 39241 ft | 420 kts | 19° |
| 2026-02-22 06:11 | 49.74977 | 10.51712 | 39223 ft | 418 kts | 19° |
| 2026-02-22 06:11 | 49.80110 | 10.55913 | 39205 ft | 417 kts | 19° |
| 2026-02-22 06:12 | 49.85246 | 10.60122 | 39207 ft | 418 kts | 19° |
| 2026-02-22 06:12 | 49.90385 | 10.64346 | 39209 ft | 418 kts | 19° |
| 2026-02-22 06:13 | 49.95527 | 10.68588 | 39214 ft | 419 kts | 19° |
| 2026-02-22 06:13 | 50.00676 | 10.72840 | 39213 ft | 419 kts | 19° |
| 2026-02-22 06:14 | 50.05824 | 10.77114 | 39208 ft | 419 kts | 19° |
| 2026-02-22 06:14 | 50.10969 | 10.81402 | 39200 ft | 419 kts | 19° |
| 2026-02-22 06:15 | 50.16079 | 10.85655 | 39214 ft | 420 kts | 19° |
| 2026-02-22 06:15 | 50.21243 | 10.89949 | 39199 ft | 421 kts | 19° |
| 2026-02-22 06:16 | 50.26412 | 10.94274 | 39193 ft | 422 kts | 19° |
| 2026-02-22 06:16 | 50.31579 | 10.98628 | 39186 ft | 422 kts | 19° |
| 2026-02-22 06:17 | 50.35871 | 11.02239 | 39209 ft | 422 kts | 19° |
| 2026-02-22 06:17 | 50.41046 | 11.06590 | 39170 ft | 422 kts | 19° |
| 2026-02-22 06:18 | 50.46216 | 11.10974 | 39151 ft | 423 kts | 19° |
| 2026-02-22 06:18 | 50.51387 | 11.15368 | 39149 ft | 423 kts | 19° |
| 2026-02-22 06:19 | 50.56564 | 11.19759 | 39138 ft | 423 kts | 19° |
| 2026-02-22 06:19 | 50.61745 | 11.24158 | 39147 ft | 423 kts | 19° |
| 2026-02-22 06:20 | 50.66913 | 11.28576 | 39143 ft | 422 kts | 19° |
| 2026-02-22 06:20 | 50.72076 | 11.32988 | 39144 ft | 422 kts | 19° |
| 2026-02-22 06:21 | 50.77228 | 11.37401 | 39140 ft | 422 kts | 19° |
| 2026-02-22 06:21 | 50.82392 | 11.41843 | 39136 ft | 423 kts | 19° |
| 2026-02-22 06:22 | 50.87566 | 11.46311 | 39121 ft | 424 kts | 19° |
| 2026-02-22 06:22 | 50.92745 | 11.50792 | 39120 ft | 424 kts | 19° |
| 2026-02-22 06:23 | 50.97926 | 11.55289 | 39112 ft | 425 kts | 19° |
| 2026-02-22 06:23 | 51.03115 | 11.59791 | 39131 ft | 425 kts | 19° |
| 2026-02-22 06:24 | 51.08311 | 11.64336 | 38796 ft | 429 kts | 20° |
| 2026-02-22 06:24 | 51.10730 | 11.67216 | 38161 ft | 446 kts | 35° |
| 2026-02-22 06:24 | 51.12790 | 11.70985 | 37448 ft | 452 kts | 41° |
| 2026-02-22 06:25 | 51.14770 | 11.74879 | 36759 ft | 453 kts | 41° |
| 2026-02-22 06:25 | 51.16733 | 11.78814 | 36093 ft | 454 kts | 42° |
| 2026-02-22 06:25 | 51.18691 | 11.82785 | 35445 ft | 457 kts | 42° |
| 2026-02-22 06:25 | 51.20653 | 11.86784 | 34845 ft | 459 kts | 43° |
| 2026-02-22 06:26 | 51.22600 | 11.90753 | 34238 ft | 462 kts | 42° |
| 2026-02-22 06:26 | 51.24592 | 11.94792 | 33561 ft | 464 kts | 42° |
| 2026-02-22 06:26 | 51.26597 | 11.98846 | 32874 ft | 466 kts | 42° |
| 2026-02-22 06:26 | 51.28606 | 12.02911 | 32206 ft | 466 kts | 42° |
| 2026-02-22 06:27 | 51.30610 | 12.06984 | 31556 ft | 467 kts | 43° |
| 2026-02-22 06:27 | 51.32616 | 12.11071 | 30918 ft | 467 kts | 43° |
| 2026-02-22 06:27 | 51.34611 | 12.15154 | 30297 ft | 464 kts | 43° |
| 2026-02-22 06:27 | 51.36585 | 12.19199 | 29596 ft | 460 kts | 43° |
| 2026-02-22 06:28 | 51.38544 | 12.23215 | 28884 ft | 455 kts | 43° |
| 2026-02-22 06:28 | 51.40484 | 12.27193 | 28288 ft | 451 kts | 43° |
| 2026-02-22 06:28 | 51.42431 | 12.31176 | 27840 ft | 461 kts | 43° |
| 2026-02-22 06:28 | 51.44429 | 12.35241 | 27254 ft | 465 kts | 43° |
| 2026-02-22 06:29 | 51.46421 | 12.39327 | 26679 ft | 464 kts | 44° |
| 2026-02-22 06:29 | 51.48392 | 12.43405 | 26113 ft | 461 kts | 44° |
| 2026-02-22 06:29 | 51.50346 | 12.47460 | 25572 ft | 457 kts | 44° |
| 2026-02-22 06:29 | 51.52284 | 12.51484 | 25023 ft | 454 kts | 44° |
| 2026-02-22 06:30 | 51.54207 | 12.55479 | 24499 ft | 450 kts | 44° |
| 2026-02-22 06:30 | 51.56115 | 12.59444 | 23980 ft | 447 kts | 44° |
| 2026-02-22 06:30 | 51.58008 | 12.63380 | 23443 ft | 443 kts | 45° |
| 2026-02-22 06:30 | 51.59884 | 12.67280 | 22863 ft | 439 kts | 45° |
| 2026-02-22 06:31 | 51.61749 | 12.71156 | 22264 ft | 437 kts | 45° |
| 2026-02-22 06:31 | 51.63604 | 12.75011 | 21683 ft | 434 kts | 45° |
| 2026-02-22 06:31 | 51.65444 | 12.78847 | 21108 ft | 431 kts | 45° |
| 2026-02-22 06:31 | 51.67262 | 12.82657 | 20548 ft | 428 kts | 45° |
| 2026-02-22 06:32 | 51.69071 | 12.86454 | 19990 ft | 426 kts | 45° |
| 2026-02-22 06:32 | 51.70870 | 12.90223 | 19433 ft | 423 kts | 45° |
| 2026-02-22 06:32 | 51.72657 | 12.93973 | 18912 ft | 420 kts | 46° |
| 2026-02-22 06:32 | 51.74430 | 12.97706 | 18394 ft | 418 kts | 46° |
| 2026-02-22 06:33 | 51.76191 | 13.01421 | 17801 ft | 415 kts | 46° |
| 2026-02-22 06:33 | 51.77936 | 13.05114 | 17204 ft | 412 kts | 46° |
| 2026-02-22 06:33 | 51.79686 | 13.08812 | 16661 ft | 418 kts | 46° |
| 2026-02-22 06:33 | 51.81457 | 13.12552 | 16105 ft | 419 kts | 46° |
| 2026-02-22 06:34 | 51.83222 | 13.16290 | 15542 ft | 417 kts | 46° |
| 2026-02-22 06:34 | 51.84949 | 13.19958 | 15001 ft | 414 kts | 46° |
| 2026-02-22 06:34 | 51.86684 | 13.23651 | 14463 ft | 411 kts | 46° |
| 2026-02-22 06:34 | 51.88405 | 13.27322 | 13949 ft | 408 kts | 46° |
| 2026-02-22 06:35 | 51.90106 | 13.30960 | 13359 ft | 404 kts | 47° |
| 2026-02-22 06:35 | 51.91820 | 13.34544 | 13054 ft | 400 kts | 43° |
| 2026-02-22 06:35 | 51.93894 | 13.37385 | 12664 ft | 385 kts | 26° |
| 2026-02-22 06:35 | 51.96151 | 13.39701 | 12280 ft | 383 kts | 25° |
| 2026-02-22 06:36 | 51.98410 | 13.41981 | 11894 ft | 382 kts | 25° |
| 2026-02-22 06:36 | 52.00640 | 13.44315 | 11527 ft | 384 kts | 31° |
| 2026-02-22 06:36 | 52.02528 | 13.47438 | 11150 ft | 388 kts | 44° |
| 2026-02-22 06:36 | 52.04212 | 13.50775 | 10771 ft | 376 kts | 45° |
| 2026-02-22 06:37 | 52.05983 | 13.53755 | 10400 ft | 359 kts | 36° |
| 2026-02-22 06:37 | 52.07813 | 13.56434 | 10098 ft | 348 kts | 35° |
| 2026-02-22 06:37 | 52.09571 | 13.59001 | 10026 ft | 330 kts | 35° |
| 2026-02-22 06:37 | 52.11222 | 13.61440 | 10042 ft | 312 kts | 35° |
| 2026-02-22 06:38 | 52.12804 | 13.63804 | 9791 ft | 306 kts | 35° |
| 2026-02-22 06:38 | 52.14360 | 13.66133 | 9498 ft | 302 kts | 35° |
| 2026-02-22 06:38 | 52.15904 | 13.68441 | 9215 ft | 300 kts | 35° |
| 2026-02-22 06:38 | 52.17440 | 13.70728 | 8916 ft | 299 kts | 35° |
| 2026-02-22 06:39 | 52.18978 | 13.73006 | 8624 ft | 298 kts | 35° |
| 2026-02-22 06:39 | 52.20511 | 13.75272 | 8358 ft | 297 kts | 36° |
| 2026-02-22 06:39 | 52.22050 | 13.77514 | 8075 ft | 296 kts | 35° |
| 2026-02-22 06:39 | 52.23588 | 13.79737 | 7795 ft | 295 kts | 35° |
| 2026-02-22 06:40 | 52.25124 | 13.81951 | 7512 ft | 294 kts | 36° |
| 2026-02-22 06:40 | 52.26700 | 13.84034 | 7203 ft | 289 kts | 28° |
| 2026-02-22 06:40 | 52.28378 | 13.85794 | 6812 ft | 285 kts | 26° |
| 2026-02-22 06:40 | 52.30059 | 13.87481 | 6414 ft | 283 kts | 25° |
| 2026-02-22 06:41 | 52.31729 | 13.89132 | 5998 ft | 276 kts | 25° |
| 2026-02-22 06:41 | 52.33350 | 13.90646 | 5568 ft | 259 kts | 16° |
| 2026-02-22 06:41 | 52.35023 | 13.91054 | 5170 ft | 234 kts | 345° |
| 2026-02-22 06:41 | 52.36500 | 13.90194 | 4768 ft | 222 kts | 328° |
| 2026-02-22 06:42 | 52.37860 | 13.89010 | 4348 ft | 222 kts | 326° |
| 2026-02-22 06:42 | 52.39205 | 13.87785 | 4022 ft | 219 kts | 325° |
| 2026-02-22 06:42 | 52.40512 | 13.86527 | 3959 ft | 217 kts | 318° |
| 2026-02-22 06:42 | 52.41539 | 13.84784 | 3801 ft | 211 kts | 300° |
| 2026-02-22 06:43 | 52.42127 | 13.82653 | 3649 ft | 207 kts | 282° |
| 2026-02-22 06:43 | 52.42250 | 13.80374 | 3492 ft | 197 kts | 265° |
| 2026-02-22 06:43 | 52.41935 | 13.78239 | 3335 ft | 191 kts | 250° |
| 2026-02-22 06:43 | 52.41462 | 13.76229 | 3245 ft | 188 kts | 251° |
| 2026-02-22 06:44 | 52.40999 | 13.74248 | 3036 ft | 185 kts | 251° |
| 2026-02-22 06:44 | 52.40548 | 13.72318 | 2833 ft | 178 kts | 250° |
| 2026-02-22 06:44 | 52.40111 | 13.70453 | 2573 ft | 173 kts | 250° |
| 2026-02-22 06:44 | 52.39687 | 13.68649 | 2332 ft | 167 kts | 250° |
| 2026-02-22 06:45 | 52.39285 | 13.66938 | 2106 ft | 153 kts | 250° |
| 2026-02-22 06:45 | 52.38928 | 13.65417 | 1924 ft | 135 kts | 250° |
| 2026-02-22 06:45 | 52.38601 | 13.64027 | 1744 ft | 128 kts | 250° |
| 2026-02-22 06:45 | 52.38287 | 13.62689 | 1560 ft | 125 kts | 250° |
| 2026-02-22 06:46 | 52.37976 | 13.61367 | 1387 ft | 124 kts | 250° |
| 2026-02-22 06:46 | 52.37667 | 13.60056 | 1215 ft | 123 kts | 249° |
| 2026-02-22 06:46 | 52.37357 | 13.58751 | 1032 ft | 124 kts | 248° |
| 2026-02-22 06:47 | 52.36741 | 13.56140 | 663 ft | 123 kts | 248° |
| 2026-02-22 06:47 | 52.36428 | 13.54843 | 508 ft | 123 kts | 247° |
| 2026-02-22 06:47 | 52.36124 | 13.53480 | 378 ft | 127 kts | 247° |
| 2026-02-22 06:47 | 52.35801 | 13.52128 | 203 ft | 126 kts | 247° |
| 2026-02-22 06:48 | 52.35516 | 13.50928 | 161 ft | 95 kts | 250° |
| 2026-02-22 06:48 | 52.35336 | 13.50174 | 157 ft | 51 kts | 248° |
| 2026-02-22 06:48 | 52.35230 | 13.49721 | 158 ft | 31 kts | 255° |
| 2026-02-22 06:48 | 52.35236 | 13.49440 | 160 ft | 22 kts | 279° |
| 2026-02-22 06:49 | 52.35277 | 13.49263 | 159 ft | 15 kts | 313° |
| 2026-02-22 06:49 | 52.35365 | 13.49196 | 159 ft | 13 kts | 335° |
| 2026-02-22 06:49 | 52.35426 | 13.49188 | 159 ft | 7 kts | 51° |
| 2026-02-22 06:49 | 52.35457 | 13.49320 | 159 ft | 20 kts | 70° |
| 2026-02-22 06:50 | 52.35502 | 13.49509 | 159 ft | 16 kts | 68° |
| 2026-02-22 06:50 | 52.35552 | 13.49708 | 159 ft | 19 kts | 67° |
| 2026-02-22 06:50 | 52.35596 | 13.49882 | 159 ft | 15 kts | 68° |
| 2026-02-22 06:50 | 52.35632 | 13.50033 | 159 ft | 14 kts | 69° |
| 2026-02-22 06:51 | 52.35669 | 13.50185 | 159 ft | 23 kts | 67° |
| 2026-02-22 06:51 | 52.35733 | 13.50448 | 159 ft | 23 kts | 69° |
| 2026-02-22 06:51 | 52.35788 | 13.50675 | 159 ft | 18 kts | 67° |
| 2026-02-22 06:51 | 52.35849 | 13.50784 | 159 ft | 12 kts | 353° |
| 2026-02-22 06:52 | 52.35937 | 13.50729 | 158 ft | 18 kts | 339° |
| 2026-02-22 06:52 | 52.36033 | 13.50670 | 152 ft | 15 kts | 339° |
| 2026-02-22 06:52 | 52.36156 | 13.50592 | 152 ft | 20 kts | 339° |
| 2026-02-22 06:52 | 52.36281 | 13.50513 | 152 ft | 18 kts | 338° |
| 2026-02-22 06:53 | 52.36382 | 13.50447 | 152 ft | 15 kts | 337° |
| 2026-02-22 06:53 | 52.36445 | 13.50406 | 152 ft | 8 kts | 339° |
| 2026-02-22 06:53 | 52.36488 | 13.50445 | 152 ft | 11 kts | 71° |
| 2026-02-22 06:53 | 52.36508 | 13.50532 | 152 ft | 2 kts | 70° |
| 2026-02-22 06:54 | 52.36510 | 13.50540 | 152 ft | 0 kts | 70° |